Kinetic-One Castle Combe TT Series 2018
Skip Navigation Links
Results
Team Results
Live Leaderboard
DB Max TT Series
Race Stats
Smartphone Results
8 Aug 2018
HyperLink
Click on your name for more detailed race data
Page 1 of 3 (110 items)
[1]23
Pos
Bib No
Fav
Share
Photo
Name
Time
Category
Cat Pos
Gender
Gen Pos
Club
Start Time
Split 1
G/Pos
Lap 1
G/Pos
Lap 2
G/Pos
Lap 3
G/Pos
Lap 4
G/Pos
Lap 5
G/Pos
1143Matt SLATER20:38.1Vet401Male1REVO RACING20:11:301:40.03:48.023:45.713:47.613:50.413:46.21
2136Richard BROOK20:54.9Vet402Male2VC WALCOT 20:08:001:41.03:49.333:49.433:50.523:54.323:50.02
3145Ross PHELPS21:03.9Sen1Male3BRISTOL ROAD CLUB20:12:301:42.63:44.713:48.723:54.133:58.543:55.14
4144Greg PARKER21:16.0Supvet501Male4CC WEYMOUTH20:12:001:45.93:51.243:55.443:54.343:57.233:51.83
5133Joey ROSSI21:48.6Sen2Male5URBAN ENDURANCE20:06:301:53.03:56.253:59.563:59.754:02.353:57.65
6134John O'DWYER22:05.5Sen3Male6DURSLEY ROAD CLUB20:07:001:51.63:58.364:05.194:02.964:04.674:02.86
7126Martin ALDAM22:07.7Vet403Male7BATH CC20:03:001:51.23:58.373:58.354:06.474:06.784:06.511
8135Jack POWIS22:12.2Jun1Male8RIDE 24/720:07:301:47.34:00.684:06.2104:06.794:06.894:04.39
9132Simon WARD22:15.0Vet404Male9BRISTOL ROAD CLUB20:06:001:44.34:01.8104:02.574:07.1104:12.6124:06.310
10123Dom SPALDING22:19.4Supvet502Male10MICKEY CRANKS CC20:01:301:52.54:04.0114:03.984:06.584:04.264:08.013
1192Wayne OSMOND22:30.7Supvet503Male11SAS19:46:001:50.34:04.6124:13.0174:10.9124:07.7104:04.18
12115Chris LENG22:33.0Vet405Male12VC WALCOT 19:57:301:50.24:01.594:12.2164:09.1114:12.5114:07.312
13131Matt FISHER22:44.0Vet406Male13RACE HUB20:05:301:45.14:05.8134:11.1134:10.9134:14.8154:16.120
14130Julian HARPER22:45.7Vet407Male14REVO RACING20:05:001:49.14:07.6154:11.8144:13.0154:15.7164:08.315
15121Chris NEWMAN22:48.3Sen4Male15FARNHAM ROAD CLUB20:00:301:45.44:07.8164:14.0194:16.1194:14.6144:10.117
16101Anthony WEARE22:50.2Vet408Male16 19:50:301:55.64:14.3224:12.2154:11.9144:13.0134:03.07
176Mike COX22:51.0Supvet601Male17 19:03:001:50.94:07.4144:10.1124:13.6164:16.2174:12.519
18141David POLLARD22:54.7Sen5Male18 20:10:301:52.44:09.9184:09.8114:14.9184:19.3204:08.114
19118Chrissie ROWLEY 23:03.7Supvet501Female1NOPINZ 19:59:001:53.14:10.514:13.714:13.514:16.014:16.61
20125Krispin GARDINER23:08.0Jun2Male19PDQ CYCLE COACHING20:02:301:50.64:10.9194:13.4184:14.3174:17.6184:20.923
2190Harry WOODMAN23:13.6Jun3Male20VC WALCOT 19:45:001:51.44:16.1244:17.2224:17.2204:20.1224:11.318
22120Simon HUNT23:25.2Sen6Male21 20:00:001:56.24:08.3174:15.6204:21.0234:21.8234:22.125
23119Stephen HARVEY23:28.0Supvet602Male22YEOVIL CC19:59:301:55.04:12.3204:15.9214:18.7214:23.0254:22.827
2481Nick BUFFERY23:37.4Sen7Male23 19:40:301:49.64:13.9214:23.6294:24.7274:24.2264:21.124
2539Chris MCDONALD23:37.5Tandem1Male24 19:19:302:01.94:22.6294:21.3264:23.3244:18.9194:09.316
26105Gary FORD23:42.0Vet409Male25TEAM BOTTRILL VANGUARD19:52:302:05.04:17.9264:18.4234:20.9224:22.4244:17.021
2793Ian MOORE23:46.6Supvet504Male26PHIL KIBBLE COACHING19:46:301:56.24:21.7284:25.0304:23.8264:19.4214:20.222
28112John REED23:48.0Supvet505Male27WESTBURY HARRIERS19:56:001:52.94:17.7254:22.6284:25.6304:26.2294:22.726
29104Nigel PETERSON23:49.6Supvet506Male28SALISBURY TRI CLUB19:52:001:55.44:19.6274:20.8244:23.7254:25.8284:24.031
30124Gray RICKARDS23:50.6Supvet507Male29CHELTENHAM & COUNTY CYCLING CLUB20:02:001:54.34:15.8234:20.9254:26.1314:28.3314:24.932
31110Tony FREER23:57.5Supvet508Male30DRC TRI19:55:001:51.24:24.2314:22.5274:24.8284:27.9304:26.635
3276Mike ANDERSON24:11.6Supvet603Male31 19:38:002:06.44:25.9334:25.2314:24.8294:25.4274:23.830
33111Dave TOMLINSON24:19.3Supvet509Male32 19:55:301:56.34:29.2374:29.4364:29.7334:31.1344:23.429
3488Stephen CHAPMAN24:20.2Supvet5010Male33CORINIUM CYCLING CLUB19:44:002:03.44:23.7304:27.7324:30.5344:29.4324:25.433
35113Dan LAASNA REUTER24:21.3Vet4010Male34 19:56:301:55.54:25.8324:28.6344:28.9324:31.8354:30.540
36107Andrew PALMER24:24.9Sen8Male35CHIPPENHAM WHEELERS19:53:301:57.14:29.8384:28.1334:31.4354:29.4334:28.939
37100Stuart TETLOW24:28.0Vet4011Male36COVENTRY CYCLING CLUB19:50:001:55.54:26.5354:30.9374:35.6404:36.0404:23.328
3822Chris GOODALL24:28.7Sen9Male37SALISBURY TRI19:11:001:57.14:26.3344:28.9354:32.3364:35.8394:28.137
3977Clive SHIPWAY24:44.5Vet4012Male38 19:38:301:55.54:36.9434:32.6384:34.0394:33.1384:32.144
4096Ian MUSSELL24:46.5Sen10Male39KINGSWOOD TRIATHLON CLUB19:48:002:03.44:33.4404:37.0414:32.7374:32.9374:26.736
41114Tim LOWRIE24:49.3Vet4013Male40AVON VALLEY RUNNERS19:57:002:05.24:31.5394:34.5404:33.2384:32.8364:31.942
4221Simon JUPP25:05.7Vet4014Male41DEVIZES TOWN CYCLE CLUB19:10:302:04.44:36.4424:38.2434:40.6454:37.5424:28.338
4391Tom ROPER25:10.7Vet4015Male42DURSLEY ROAD CLUB19:45:302:09.84:35.0414:37.8424:39.2424:36.5414:32.245
4497Phil GITTINS25:11.1Vet4016Male43 19:48:302:06.54:44.0524:33.9394:36.7414:38.6434:31.241
4578Giles BISSETT25:14.4Vet4017Male44 19:39:002:01.34:39.3454:41.9484:41.0484:38.6454:32.043
4663Robin FOX25:22.1Supvet5011Male45DURSLEY ROAD CLUB19:31:302:10.04:38.4444:38.8444:40.9474:39.5464:34.249
4798Mark HISTED25:22.1Vet4018Male46DURSLEY RUNNING CLUB19:49:002:03.24:28.8364:43.2514:44.7534:44.4524:37.651
4845Edward GUNNERY 25:24.4Vet4019Male47 19:22:302:05.14:44.1534:40.4464:39.3434:43.0494:32.346
4942William CARTWRIGHT25:25.9Sen11Male48BAD TRI19:21:002:01.34:41.0464:43.4524:42.5504:43.9504:33.548
5074Chris/Mick CHAMBERS25:26.52-Up1Male49OT CYCLING CLUB ABINGDON19:37:002:05.54:42.6494:43.1504:39.9444:42.5484:32.647
Page 1 of 3 (110 items)
[1]23
fb

HyperLink Copyright (c) G Vincent, 2018